createdAt,value
2024-02-03T11:07:38.839Z,97960.81
2024-02-03T11:10:06.906Z,97951.69
2024-02-03T11:12:37.929Z,97937.16
2024-02-03T11:15:12.181Z,97957.94
2024-02-03T11:17:44.118Z,97942.41
2024-02-03T11:20:22.008Z,97944.25
2024-02-03T11:22:57.824Z,97917.63
2024-02-03T11:25:26.465Z,97924.56
2024-02-03T11:27:53.708Z,97940.97
2024-02-03T11:30:20.929Z,97942.91
2024-02-03T11:32:49.352Z,97941.44
2024-02-03T11:35:17.426Z,97936.41
2024-02-03T11:37:45.013Z,97910.69
2024-02-03T11:40:12.509Z,97910.78
2024-02-03T11:42:39.778Z,97905.63
2024-02-03T11:45:30.870Z,97898.72
2024-02-03T11:48:00.301Z,97917.56
2024-02-03T11:50:29.226Z,97917.38
2024-02-03T11:52:57.883Z,97916.44
2024-02-03T11:55:25.260Z,97917.19
2024-02-03T11:57:52.543Z,97908.50
2024-02-03T12:00:21.464Z,97903.25
2024-02-03T12:02:48.970Z,97906.56
2024-02-03T12:05:16.832Z,97903.88
2024-02-03T12:07:44.184Z,97903.78
2024-02-03T12:10:11.682Z,97895.94
2024-02-03T12:12:40.705Z,97909.56
2024-02-03T12:15:10.356Z,97894.84
2024-02-03T12:17:37.666Z,97895.78
2024-02-03T12:20:05.261Z,97892.28
2024-02-03T12:22:35.549Z,97896.28
2024-02-03T12:25:03.033Z,97891.06
2024-02-03T12:27:30.652Z,97879.69
2024-02-03T12:29:58.797Z,97888.75
2024-02-03T12:32:25.952Z,97875.03
2024-02-03T12:34:54.161Z,97866.44
2024-02-03T12:37:21.392Z,97868.94
2024-02-03T12:39:48.563Z,97868.03
2024-02-03T12:42:15.842Z,97863.59
2024-02-03T12:44:42.978Z,97870.41
2024-02-03T12:47:10.102Z,97865.94
2024-02-03T12:49:37.322Z,97865.03
2024-02-03T12:52:06.186Z,97868.38
2024-02-03T12:54:33.384Z,97864.00
2024-02-03T12:57:00.607Z,97866.34
2024-02-03T12:59:27.723Z,97802.63
2024-02-03T13:01:54.994Z,97835.38
2024-02-03T13:04:22.122Z,97838.66
2024-02-03T13:06:49.297Z,97834.84
2024-02-03T13:09:16.911Z,97850.44
2024-02-03T13:11:44.032Z,97819.56
2024-02-03T13:14:11.117Z,97827.09
2024-02-03T13:16:38.585Z,97834.19
2024-02-03T13:19:05.801Z,97836.97
2024-02-03T13:21:33.019Z,97839.50
2024-02-03T13:24:00.153Z,97827.53
2024-02-03T13:26:27.391Z,97826.72
2024-02-03T13:28:54.652Z,97823.31
2024-02-03T13:31:27.164Z,97823.22
2024-02-03T13:33:54.627Z,97822.22
2024-02-03T13:36:22.001Z,97810.28
2024-02-03T13:38:49.704Z,97820.53
2024-02-03T13:41:16.946Z,97808.53
2024-02-03T13:43:44.087Z,97807.63
2024-02-03T13:46:11.524Z,97799.69
2024-02-03T13:48:38.862Z,97802.38
2024-02-03T13:51:06.707Z,97809.25
2024-02-03T13:53:33.927Z,97793.28
2024-02-03T13:56:02.711Z,97805.38
2024-02-03T13:58:29.857Z,97805.41
2024-02-03T14:00:57.030Z,97810.53
2024-02-03T14:03:24.266Z,97810.50
2024-02-03T14:05:51.456Z,97807.84
2024-02-03T14:08:20.815Z,97805.13
2024-02-03T14:10:49.620Z,97806.00
2024-02-03T14:13:16.763Z,97803.50
2024-02-03T14:15:44.936Z,97790.72
2024-02-03T14:18:12.092Z,97801.97
2024-02-03T14:20:39.817Z,97799.47
2024-02-03T14:23:06.902Z,97801.34
2024-02-03T14:25:36.328Z,97776.56
2024-02-03T14:28:04.982Z,97786.25
2024-02-03T14:30:32.146Z,97788.88
2024-02-03T14:32:59.296Z,97792.38
2024-02-03T14:35:26.554Z,97790.66
2024-02-03T14:37:53.768Z,97777.88
2024-02-03T14:40:20.902Z,97780.47
2024-02-03T14:42:48.217Z,97779.59
2024-02-03T14:45:16.312Z,97774.56
2024-02-03T14:47:43.433Z,97755.75
2024-02-03T14:50:11.023Z,97766.97
2024-02-03T14:52:38.315Z,97755.84
2024-02-03T14:55:05.889Z,97756.69
2024-02-03T14:57:33.008Z,97760.13
2024-02-03T15:00:00.145Z,97762.75
2024-02-03T15:02:27.273Z,97767.88
2024-02-03T15:04:54.469Z,97725.88
2024-02-03T15:07:21.663Z,97732.66
2024-02-03T15:09:49.098Z,97754.22
2024-02-03T15:12:16.362Z,97755.09
2024-02-03T15:14:43.509Z,97747.44
2024-02-03T15:17:10.602Z,97748.38
2024-02-03T15:19:37.914Z,97740.72
2024-02-03T15:22:05.232Z,97737.31
2024-02-03T15:24:32.492Z,97726.22
2024-02-03T15:26:59.696Z,97738.34
2024-02-03T15:29:26.811Z,97712.56
2024-02-03T15:31:53.983Z,97729.66
2024-02-03T15:34:21.205Z,97739.00
2024-02-03T15:36:49.571Z,97732.19
2024-02-03T15:39:16.803Z,97715.84
2024-02-03T15:41:43.939Z,97725.28
2024-02-03T15:44:12.002Z,97712.47
2024-02-03T15:46:44.757Z,97711.59
2024-02-03T15:49:13.803Z,97718.34
2024-02-03T15:51:41.037Z,97709.88
2024-02-03T15:54:09.063Z,97702.16
2024-02-03T15:56:37.105Z,97708.13
2024-02-03T15:59:04.898Z,97700.50
2024-02-03T16:01:32.359Z,97691.91
2024-02-03T16:03:59.924Z,97692.75
2024-02-03T16:06:27.265Z,97686.75
2024-02-03T16:08:54.413Z,97675.47
2024-02-03T16:11:21.552Z,97649.66
2024-02-03T16:13:49.767Z,97692.66
2024-02-03T16:16:17.648Z,97684.88
2024-02-03T16:18:44.996Z,97693.25
2024-02-03T16:21:12.150Z,97688.22
2024-02-03T16:23:39.237Z,97697.66
2024-02-03T16:26:06.784Z,97681.22
2024-02-03T16:28:34.616Z,97676.06
2024-02-03T16:31:01.874Z,97676.75
2024-02-03T16:33:30.930Z,97668.28
2024-02-03T16:35:58.376Z,97666.47
2024-02-03T16:38:26.058Z,97665.41
2024-02-03T16:40:53.729Z,97659.47
2024-02-03T16:43:20.934Z,97643.38
2024-02-03T16:45:48.095Z,97620.28
2024-02-03T16:48:15.402Z,97622.69
2024-02-03T16:50:42.757Z,97606.44
2024-02-03T16:53:10.755Z,97598.88
2024-02-03T16:55:37.918Z,97597.16
2024-02-03T16:58:06.203Z,97598.84
2024-02-03T17:00:38.416Z,97594.53
2024-02-03T17:03:06.643Z,97546.38
2024-02-03T17:05:33.899Z,97581.72
2024-02-03T17:08:01.325Z,97579.25
2024-02-03T17:10:28.510Z,97568.94
2024-02-03T17:12:55.807Z,97568.09
2024-02-03T17:15:23.185Z,97569.91
2024-02-03T17:17:50.798Z,97569.06
2024-02-03T17:20:18.472Z,97562.16
2024-02-03T17:22:45.727Z,97563.09
2024-02-03T17:25:12.872Z,97564.88
2024-02-03T17:27:41.938Z,97564.03
2024-02-03T17:30:14.706Z,97576.81
2024-02-03T17:35:27.164Z,97574.28
2024-02-03T17:37:54.372Z,97552.88
2024-02-03T17:40:21.506Z,97558.13
2024-02-03T17:42:50.813Z,97549.59
2024-02-03T17:45:20.182Z,97547.00
2024-02-03T17:47:48.627Z,97531.59
2024-02-03T17:50:19.707Z,97524.59
2024-02-03T17:52:49.845Z,97526.34
2024-02-03T17:55:35.650Z,97511.03
2024-02-03T17:58:02.833Z,97507.53
2024-02-03T18:00:30.000Z,97505.72
2024-02-03T18:02:57.164Z,97500.59
2024-02-03T18:05:24.434Z,97442.09
2024-02-03T18:07:51.665Z,97478.25
2024-02-03T18:10:18.729Z,97490.25
2024-02-03T18:12:46.060Z,97478.09
2024-02-03T18:15:13.452Z,97480.72
2024-02-03T18:17:40.671Z,97492.81
2024-02-03T18:20:10.321Z,97497.22
2024-02-03T18:22:37.489Z,97486.13
2024-02-03T18:25:05.051Z,97421.88
2024-02-03T18:27:32.232Z,97482.84
2024-02-03T18:29:59.417Z,97458.81
2024-02-03T18:32:26.896Z,97482.78
2024-02-03T18:34:54.072Z,97482.84
2024-02-03T18:37:21.190Z,97476.84
2024-02-03T18:39:53.732Z,97474.31
2024-02-03T18:42:21.581Z,97462.34
2024-02-03T18:44:48.803Z,97474.22
2024-02-03T18:47:15.918Z,97453.66
2024-02-03T18:49:43.277Z,97464.84
2024-02-03T18:52:10.495Z,97465.72
2024-02-03T18:54:37.628Z,97439.97
2024-02-03T18:57:05.037Z,97439.09
2024-02-03T18:59:32.141Z,97449.41
2024-02-03T19:01:59.233Z,97433.09
2024-02-03T19:04:26.458Z,97439.09
2024-02-03T19:06:53.755Z,97447.75
2024-02-03T19:09:21.725Z,97428.94
2024-02-03T19:11:51.015Z,97434.97
2024-02-03T19:14:39.695Z,97438.25
2024-02-03T19:17:07.025Z,97433.25
2024-02-03T19:19:36.445Z,97423.91
2024-02-03T19:22:05.182Z,97426.53
2024-02-03T19:24:32.447Z,97412.81
2024-02-03T19:26:59.560Z,97414.53
2024-02-03T19:29:27.946Z,97399.16
2024-02-03T19:31:55.060Z,97405.22
2024-02-03T19:34:23.174Z,97335.69
2024-02-03T19:36:50.309Z,97388.16
2024-02-03T19:39:17.459Z,97386.50
2024-02-03T19:41:44.606Z,97381.41
2024-02-03T19:44:11.945Z,97376.28
2024-02-03T19:46:40.038Z,97348.00
2024-02-03T19:49:08.269Z,97358.28
2024-02-03T19:51:35.819Z,97339.38
2024-02-03T19:54:02.974Z,97344.50
2024-02-03T19:56:30.073Z,97352.25
2024-02-03T19:58:57.210Z,97353.13
2024-02-03T20:01:24.525Z,97343.75
2024-02-03T20:06:36.045Z,97336.88
2024-02-03T20:09:03.587Z,97327.56
2024-02-03T20:11:30.800Z,97324.97
2024-02-03T20:13:57.994Z,97328.34
2024-02-03T20:16:25.311Z,97332.75
2024-02-03T20:18:52.675Z,97331.84
2024-02-03T20:21:38.310Z,97329.28
2024-02-03T20:24:05.745Z,97321.63
2024-02-03T20:26:32.828Z,97323.41
2024-02-03T20:28:59.966Z,97315.78
2024-02-03T20:31:27.180Z,97296.09
2024-02-03T20:33:54.561Z,97319.22
2024-02-03T20:36:21.750Z,97316.69
2024-02-03T20:39:10.110Z,97305.66
2024-02-03T20:41:37.471Z,97296.34
2024-02-03T20:44:06.236Z,97279.28
2024-02-03T20:46:33.397Z,97282.75
2024-02-03T20:49:00.696Z,97277.69
2024-02-03T20:51:27.991Z,97285.34
2024-02-03T20:53:55.240Z,97272.59
2024-02-03T20:57:00.062Z,97271.72
2024-02-03T20:59:27.293Z,97256.31
2024-02-03T21:01:54.474Z,97247.88
2024-02-03T21:04:40.366Z,97235.16
2024-02-03T21:07:10.014Z,97228.28
2024-02-03T21:09:37.217Z,97225.81
2024-02-03T21:12:04.479Z,97215.53
2024-02-03T21:14:31.604Z,97207.00
2024-02-03T21:16:59.536Z,97184.78
2024-02-03T21:19:26.968Z,97187.50
2024-02-03T21:21:54.228Z,97200.19
2024-02-03T21:24:21.429Z,97195.09
2024-02-03T21:26:49.429Z,97196.66
2024-02-03T21:29:16.742Z,97181.34
2024-02-03T21:31:43.964Z,97191.69
2024-02-03T21:34:11.722Z,97184.88
2024-02-03T21:36:38.959Z,97164.38
2024-02-03T21:39:06.365Z,97168.63
2024-02-03T21:41:33.922Z,97189.97
2024-02-03T21:44:01.034Z,97186.63
2024-02-03T21:46:28.152Z,97171.34
2024-02-03T21:48:55.485Z,97133.72
2024-02-03T21:51:22.766Z,97166.31
2024-02-03T21:53:49.999Z,97148.41
2024-02-03T21:56:18.574Z,97154.47
2024-02-03T21:59:04.634Z,97142.53
2024-02-03T22:01:32.597Z,97139.97
2024-02-03T22:04:00.097Z,97131.47
2024-02-03T22:06:27.347Z,97121.25
2024-02-03T22:09:17.365Z,97126.47
2024-02-03T22:11:45.386Z,97054.53
2024-02-03T22:14:12.719Z,97048.56
2024-02-03T22:16:40.593Z,97095.69
2024-02-03T22:19:07.849Z,97102.56
2024-02-03T22:21:35.060Z,97080.34
2024-02-03T22:24:02.379Z,97082.16
2024-02-03T22:26:29.456Z,97078.66
2024-02-03T22:28:56.554Z,97083.75
2024-02-03T22:31:23.678Z,97060.75
2024-02-03T22:33:50.819Z,97065.06
2024-02-03T22:36:17.962Z,97065.97
2024-02-03T22:38:45.082Z,97063.41
2024-02-03T22:41:12.232Z,97065.16
2024-02-03T22:43:39.320Z,97057.44
2024-02-03T22:46:07.628Z,97049.78
2024-02-03T22:48:34.951Z,97057.44
2024-02-03T22:51:20.752Z,97070.25
2024-02-03T22:53:47.907Z,97054.06
2024-02-03T22:56:14.991Z,97046.41
2024-02-03T22:58:42.050Z,97032.72
2024-02-03T23:01:09.271Z,97022.47
2024-02-03T23:03:36.489Z,97033.63
2024-02-03T23:06:04.285Z,97020.03
2024-02-03T23:08:31.422Z,97004.66
2024-02-03T23:11:17.270Z,97001.25
2024-02-03T23:13:44.354Z,97008.97
2024-02-03T23:16:11.530Z,96998.72
2024-02-03T23:18:38.855Z,96977.38
2024-02-03T23:21:07.628Z,96960.31
2024-02-03T23:23:35.522Z,96982.56
2024-02-03T23:26:02.727Z,96982.53
2024-02-03T23:28:32.318Z,96980.84
2024-02-03T23:31:02.779Z,96977.44
2024-02-03T23:33:30.156Z,96975.78
2024-02-03T23:36:16.125Z,96947.56
2024-02-03T23:38:43.220Z,96976.63
2024-02-03T23:43:54.738Z,96960.41
2024-02-03T23:46:21.941Z,96956.09
2024-02-03T23:48:49.209Z,96946.69
2024-02-03T23:51:16.383Z,96931.38
2024-02-03T23:53:43.456Z,96938.22
2024-02-03T23:56:10.554Z,96934.81
2024-02-03T23:58:38.718Z,96931.41
